Detall de PIREP

Printer-friendly versionPDF version

[2015/08/25 15:56:00]
Flight IATA:CT3209
Pilot Number:016
Company ICAO:CAT
Aircraft Type:B763/F
PAX:176
Departing Airport: EBBR
Destination Airport: LEPA
Alternate Airport:LEBL
Online: VATSIM
Route:CIV UN872 KOVIN UY317 RESMI UN857 DIRMO UN855 PPG UP84 LORES
Flight Level:F350
No Slew and time accel
No pause
Crash detect
Detect pilot in Cockpit between each 30 and 45 minutes
15:56 Zero fuel Weight: 240114 Lbs, Fuel Weight: 30617 Lbs
15:56 VATSIM:EBBR 251520Z 20013KT 170V230 9999 SCT042 18/10 Q1013 TEMPO 4000 RA
15:56 VATSIM:LEPA 251530Z 09005KT 050V120 9999 BKN032 28/21 Q1018 NOSIG
15:56 Parking Brakes off
16:00 Take-off
16:00 Take off Weight: 269678 Lbs
16:00 Wind: 000º @ 000 Knots Heading: 070º
16:00 POS N50º 53´ 34´´ E004º 29´ 50´´
16:00 Gear Up: 156 Knots
16:00 Flaps:2 at 156 Knots
16:01 Flaps:1 at 205 Knots
16:01 Flaps:0 at 232 Knots
16:09 TOC
16:09 Fuel Weight: 24829 Lb
16:15 Wind:270º@025 Knots Heading: 205º Ground Speed: 455 Knots Altitude 34996 ft
16:30 Wind:270º@025 Knots Heading: 180º Ground Speed: 466 Knots Altitude 35003 ft
16:45 Wind:270º@025 Knots Heading: 181º Ground Speed: 465 Knots Altitude 35003 ft
17:00 Wind:270º@025 Knots Heading: 181º Ground Speed: 465 Knots Altitude 34996 ft
17:15 Wind:270º@025 Knots Heading: 184º Ground Speed: 463 Knots Altitude 34996 ft
17:15 TOD
17:15 Fuel Weight: 14347 Lb
17:30 Wind:270º@024 Knots Heading: 154º Ground Speed: 330 Knots Altitude 17598 ft
17:35 Flaps:1 at 247 Knots
17:37 Flaps:2 at 210 Knots
17:38 Flaps:3 at 193 Knots
17:41 Flaps:4 at 171 Knots
17:42 Gear Down: 160 Knots
17:42 Flaps:5 at 152 Knots
17:42 Flaps:6 at 140 Knots
17:45 Wind:000º@000 Knots Heading: 245º Ground Speed: 140 Knots Altitude 2106 ft
17:48 TouchDown:Rate -137 ft/min Speed: 132 Knots
17:49VATSIM:LEPA 251900Z VRB02KT 9999 FEW028 SCT036 BKN050 27/20 Q1019 NOSIG
17:49 Land
17:49 Wind:000º@000 Knots
17:49 Heading: 239º
17:49 Flight Duration: 01:49
17:49 Landing Weight: 250448 Lbs
17:49 POS N39º 32´ 49´´ E002º 44´ 37´´
17:50 Parking brakes on
17:50 Block to Block Duration: 01:54
17:50 Final Fuel: 10092 Lbls
17:50 Spent Fuel: 20524 Lbls
17:50 Flight Length: 722 NM
17:50 TOD Land Length: 157 NM

Exportar CSV

Powered by Drupal - Modified by Danger4k